BVX012B EGPH-EGSS
Flight info
| Callsign | BVX012B |
|---|---|
| Flight time | 0h 54m |
| Altitude | 33000 |
| Route | GOSAM P600 FENIK L612 NAVSO DCT AKOMU DCT VAMEB UL612 LISTO |
| Aircraft | A359/H-SDE2E3GHIJ3J4J5LM1ORWXY/LB1D1 |
Departure
| Time | 2026-04-23 16:04 |
|---|---|
| Airport | Edinburgh Airport (EGPH) |
Arrival
| Time | 2026-04-23 16:58 |
|---|---|
| Airport | London Stansted Airport (EGSS) |
| Time | Latitude | Longitude | Altitude | Speed | Heading |
|---|---|---|---|---|---|
| 2026-04-23 15:55 | 55.94801 | -3.36633 | 123 ft | 0 kts | 117° |
| 2026-04-23 15:55 | 55.94802 | -3.36637 | 123 ft | 3 kts | 117° |
| 2026-04-23 15:56 | 55.94813 | -3.36675 | 118 ft | 3 kts | 118° |
| 2026-04-23 15:56 | 55.94820 | -3.36716 | 117 ft | 4 kts | 78° |
| 2026-04-23 15:56 | 55.94808 | -3.36754 | 117 ft | 4 kts | 34° |
| 2026-04-23 15:56 | 55.94784 | -3.36774 | 118 ft | 4 kts | 10° |
| 2026-04-23 15:57 | 55.94770 | -3.36777 | 118 ft | 0 kts | 359° |
| 2026-04-23 15:58 | 55.94773 | -3.36777 | 118 ft | 1 kts | 360° |
| 2026-04-23 15:58 | 55.94798 | -3.36777 | 117 ft | 6 kts | 360° |
| 2026-04-23 15:59 | 55.94852 | -3.36778 | 121 ft | 10 kts | 360° |
| 2026-04-23 15:59 | 55.94912 | -3.36803 | 118 ft | 8 kts | 317° |
| 2026-04-23 15:59 | 55.94918 | -3.36907 | 118 ft | 9 kts | 256° |
| 2026-04-23 15:59 | 55.94880 | -3.37036 | 117 ft | 14 kts | 237° |
| 2026-04-23 16:00 | 55.94835 | -3.37169 | 119 ft | 13 kts | 239° |
| 2026-04-23 16:00 | 55.94783 | -3.37321 | 117 ft | 14 kts | 238° |
| 2026-04-23 16:00 | 55.94722 | -3.37497 | 119 ft | 15 kts | 239° |
| 2026-04-23 16:00 | 55.94661 | -3.37678 | 117 ft | 19 kts | 238° |
| 2026-04-23 16:01 | 55.94587 | -3.37894 | 117 ft | 21 kts | 238° |
| 2026-04-23 16:01 | 55.94515 | -3.38108 | 117 ft | 20 kts | 239° |
| 2026-04-23 16:01 | 55.94441 | -3.38326 | 118 ft | 20 kts | 239° |
| 2026-04-23 16:01 | 55.94386 | -3.38489 | 117 ft | 17 kts | 239° |
| 2026-04-23 16:02 | 55.94328 | -3.38662 | 120 ft | 17 kts | 239° |
| 2026-04-23 16:02 | 55.94293 | -3.38764 | 117 ft | 8 kts | 238° |
| 2026-04-23 16:02 | 55.94291 | -3.38870 | 121 ft | 10 kts | 309° |
| 2026-04-23 16:02 | 55.94346 | -3.38932 | 117 ft | 10 kts | 329° |
| 2026-04-23 16:03 | 55.94407 | -3.38979 | 115 ft | 4 kts | 7° |
| 2026-04-23 16:03 | 55.94430 | -3.38936 | 115 ft | 4 kts | 59° |
| 2026-04-23 16:03 | 55.94451 | -3.38873 | 116 ft | 8 kts | 59° |
| 2026-04-23 16:03 | 55.94568 | -3.38527 | 115 ft | 81 kts | 59° |
| 2026-04-23 16:04 | 55.95054 | -3.37096 | 283 ft | 171 kts | 59° |
| 2026-04-23 16:04 | 55.95696 | -3.35193 | 1570 ft | 188 kts | 59° |
| 2026-04-23 16:04 | 55.96578 | -3.33306 | 2938 ft | 211 kts | 46° |
| 2026-04-23 16:04 | 55.97686 | -3.31472 | 3840 ft | 225 kts | 42° |
| 2026-04-23 16:05 | 55.98499 | -3.30199 | 4082 ft | 244 kts | 41° |
| 2026-04-23 16:05 | 56.00560 | -3.28073 | 4779 ft | 268 kts | 10° |
| 2026-04-23 16:05 | 56.02401 | -3.28384 | 5500 ft | 270 kts | 336° |
| 2026-04-23 16:05 | 56.03837 | -3.30467 | 6233 ft | 269 kts | 301° |
| 2026-04-23 16:06 | 56.04363 | -3.33613 | 7104 ft | 267 kts | 268° |
| 2026-04-23 16:06 | 56.03891 | -3.36742 | 7930 ft | 267 kts | 243° |
| 2026-04-23 16:06 | 56.03048 | -3.39713 | 8776 ft | 270 kts | 242° |
| 2026-04-23 16:06 | 56.02021 | -3.42542 | 9626 ft | 272 kts | 229° |
| 2026-04-23 16:07 | 56.00687 | -3.44959 | 10476 ft | 275 kts | 220° |
| 2026-04-23 16:07 | 55.99158 | -3.47130 | 10997 ft | 290 kts | 216° |
| 2026-04-23 16:07 | 55.97436 | -3.49219 | 11298 ft | 310 kts | 211° |
| 2026-04-23 16:07 | 55.95325 | -3.50235 | 11706 ft | 323 kts | 181° |
| 2026-04-23 16:08 | 55.93077 | -3.49672 | 12356 ft | 329 kts | 171° |
| 2026-04-23 16:08 | 55.90799 | -3.49035 | 13056 ft | 333 kts | 173° |
| 2026-04-23 16:08 | 55.88482 | -3.48444 | 13706 ft | 338 kts | 172° |
| 2026-04-23 16:08 | 55.86130 | -3.47812 | 14293 ft | 345 kts | 172° |
| 2026-04-23 16:09 | 55.83747 | -3.47122 | 14886 ft | 349 kts | 171° |
| 2026-04-23 16:09 | 55.81342 | -3.46365 | 15507 ft | 352 kts | 170° |
| 2026-04-23 16:09 | 55.78925 | -3.45561 | 16144 ft | 355 kts | 169° |
| 2026-04-23 16:09 | 55.76495 | -3.44730 | 16791 ft | 357 kts | 169° |
| 2026-04-23 16:10 | 55.74041 | -3.43890 | 17420 ft | 360 kts | 169° |
| 2026-04-23 16:10 | 55.71570 | -3.43049 | 18079 ft | 363 kts | 169° |
| 2026-04-23 16:10 | 55.69109 | -3.42216 | 18698 ft | 366 kts | 169° |
| 2026-04-23 16:10 | 55.66591 | -3.41370 | 19196 ft | 370 kts | 169° |
| 2026-04-23 16:11 | 55.64043 | -3.40516 | 19711 ft | 374 kts | 169° |
| 2026-04-23 16:11 | 55.61475 | -3.39658 | 20211 ft | 377 kts | 169° |
| 2026-04-23 16:11 | 55.58890 | -3.38796 | 20763 ft | 379 kts | 169° |
| 2026-04-23 16:11 | 55.56284 | -3.37927 | 21271 ft | 382 kts | 169° |
| 2026-04-23 16:12 | 55.53669 | -3.37050 | 21831 ft | 385 kts | 169° |
| 2026-04-23 16:12 | 55.51020 | -3.36168 | 22315 ft | 389 kts | 169° |
| 2026-04-23 16:12 | 55.48351 | -3.35283 | 22794 ft | 392 kts | 169° |
| 2026-04-23 16:12 | 55.45653 | -3.34391 | 23316 ft | 395 kts | 169° |
| 2026-04-23 16:13 | 55.42940 | -3.33495 | 23825 ft | 398 kts | 169° |
| 2026-04-23 16:13 | 55.37489 | -3.31694 | 24673 ft | 406 kts | 169° |
| 2026-04-23 16:13 | 55.34685 | -3.30769 | 24995 ft | 413 kts | 169° |
| 2026-04-23 16:14 | 55.31848 | -3.29835 | 25459 ft | 415 kts | 169° |
| 2026-04-23 16:14 | 55.29006 | -3.28901 | 25917 ft | 418 kts | 169° |
| 2026-04-23 16:14 | 55.26136 | -3.27958 | 26402 ft | 421 kts | 169° |
| 2026-04-23 16:14 | 55.23242 | -3.27009 | 26851 ft | 425 kts | 169° |
| 2026-04-23 16:15 | 55.20321 | -3.26053 | 27350 ft | 429 kts | 169° |
| 2026-04-23 16:15 | 55.17361 | -3.25085 | 27772 ft | 436 kts | 169° |
| 2026-04-23 16:15 | 55.14373 | -3.24110 | 28405 ft | 437 kts | 169° |
| 2026-04-23 16:15 | 55.11373 | -3.23133 | 29004 ft | 440 kts | 169° |
| 2026-04-23 16:16 | 55.08355 | -3.22150 | 29591 ft | 443 kts | 169° |
| 2026-04-23 16:16 | 55.05298 | -3.21157 | 30111 ft | 448 kts | 169° |
| 2026-04-23 16:16 | 55.02220 | -3.20159 | 30644 ft | 452 kts | 169° |
| 2026-04-23 16:16 | 54.99111 | -3.19152 | 31123 ft | 456 kts | 169° |
| 2026-04-23 16:17 | 54.95978 | -3.18139 | 31613 ft | 460 kts | 169° |
| 2026-04-23 16:17 | 54.92817 | -3.17118 | 32039 ft | 465 kts | 169° |
| 2026-04-23 16:17 | 54.89663 | -3.16101 | 32478 ft | 468 kts | 169° |
| 2026-04-23 16:17 | 54.86445 | -3.15066 | 32947 ft | 472 kts | 169° |
| 2026-04-23 16:18 | 54.83339 | -3.14067 | 33328 ft | 476 kts | 169° |
| 2026-04-23 16:18 | 54.80100 | -3.13028 | 33428 ft | 466 kts | 169° |
| 2026-04-23 16:18 | 54.76976 | -3.12027 | 33444 ft | 448 kts | 169° |
| 2026-04-23 16:18 | 54.73948 | -3.11059 | 33442 ft | 436 kts | 169° |
| 2026-04-23 16:19 | 54.67986 | -3.09157 | 33432 ft | 436 kts | 169° |
| 2026-04-23 16:19 | 54.62002 | -3.07253 | 33426 ft | 438 kts | 169° |
| 2026-04-23 16:20 | 54.56010 | -3.05352 | 33426 ft | 438 kts | 169° |
| 2026-04-23 16:20 | 54.49961 | -3.03440 | 33413 ft | 458 kts | 169° |
| 2026-04-23 16:21 | 54.46769 | -3.02433 | 33414 ft | 474 kts | 169° |
| 2026-04-23 16:21 | 54.43471 | -3.01394 | 33418 ft | 489 kts | 169° |
| 2026-04-23 16:21 | 54.36694 | -2.99265 | 33419 ft | 497 kts | 169° |
| 2026-04-23 16:22 | 54.29901 | -2.97137 | 33425 ft | 496 kts | 169° |
| 2026-04-23 16:22 | 54.23119 | -2.95020 | 33424 ft | 495 kts | 169° |
| 2026-04-23 16:23 | 54.16405 | -2.92409 | 33425 ft | 496 kts | 160° |
| 2026-04-23 16:23 | 54.09988 | -2.88061 | 33423 ft | 496 kts | 156° |
| 2026-04-23 16:24 | 54.03638 | -2.83416 | 33422 ft | 496 kts | 156° |
| 2026-04-23 16:24 | 53.97296 | -2.78756 | 33417 ft | 496 kts | 156° |
| 2026-04-23 16:25 | 53.90944 | -2.74135 | 33413 ft | 497 kts | 156° |
| 2026-04-23 16:25 | 53.84578 | -2.69535 | 33425 ft | 498 kts | 156° |
| 2026-04-23 16:26 | 53.78205 | -2.64964 | 33420 ft | 498 kts | 156° |
| 2026-04-23 16:26 | 53.71867 | -2.60425 | 33420 ft | 498 kts | 156° |
| 2026-04-23 16:27 | 53.65477 | -2.55870 | 33421 ft | 499 kts | 156° |
| 2026-04-23 16:27 | 53.59062 | -2.51304 | 33421 ft | 500 kts | 156° |
| 2026-04-23 16:28 | 53.52649 | -2.46760 | 33433 ft | 500 kts | 156° |
| 2026-04-23 16:28 | 53.46232 | -2.42230 | 33430 ft | 500 kts | 156° |
| 2026-04-23 16:29 | 53.39812 | -2.37717 | 33426 ft | 500 kts | 156° |
| 2026-04-23 16:29 | 53.33398 | -2.33211 | 33425 ft | 500 kts | 156° |
| 2026-04-23 16:30 | 53.26968 | -2.28709 | 33426 ft | 500 kts | 156° |
| 2026-04-23 16:30 | 53.20589 | -2.24254 | 33429 ft | 500 kts | 156° |
| 2026-04-23 16:31 | 53.14238 | -2.19512 | 33430 ft | 501 kts | 149° |
| 2026-04-23 16:31 | 53.08532 | -2.12902 | 33422 ft | 499 kts | 142° |
| 2026-04-23 16:32 | 53.02936 | -2.06049 | 33424 ft | 499 kts | 142° |
| 2026-04-23 16:32 | 52.97337 | -1.99242 | 33424 ft | 497 kts | 142° |
| 2026-04-23 16:33 | 52.91776 | -1.92515 | 33438 ft | 494 kts | 143° |
| 2026-04-23 16:33 | 52.86224 | -1.85825 | 33421 ft | 493 kts | 143° |
| 2026-04-23 16:34 | 52.80671 | -1.79155 | 33422 ft | 493 kts | 143° |
| 2026-04-23 16:34 | 52.75155 | -1.72610 | 32997 ft | 485 kts | 145° |
| 2026-04-23 16:35 | 52.72243 | -1.69801 | 31806 ft | 489 kts | 150° |
| 2026-04-23 16:35 | 52.69186 | -1.67152 | 30197 ft | 504 kts | 151° |
| 2026-04-23 16:35 | 52.66046 | -1.64480 | 28884 ft | 509 kts | 151° |
| 2026-04-23 16:35 | 52.62934 | -1.61830 | 28297 ft | 497 kts | 151° |
| 2026-04-23 16:36 | 52.59887 | -1.59233 | 27523 ft | 491 kts | 151° |
| 2026-04-23 16:36 | 52.56864 | -1.56653 | 26682 ft | 486 kts | 151° |
| 2026-04-23 16:36 | 52.53885 | -1.54110 | 25961 ft | 480 kts | 151° |
| 2026-04-23 16:36 | 52.50934 | -1.51594 | 25241 ft | 474 kts | 151° |
| 2026-04-23 16:37 | 52.48022 | -1.49113 | 24635 ft | 468 kts | 150° |
| 2026-04-23 16:37 | 52.45168 | -1.46684 | 24219 ft | 454 kts | 151° |
| 2026-04-23 16:37 | 52.42406 | -1.44339 | 23656 ft | 442 kts | 151° |
| 2026-04-23 16:37 | 52.39673 | -1.42019 | 22589 ft | 443 kts | 150° |
| 2026-04-23 16:38 | 52.36970 | -1.39727 | 21939 ft | 433 kts | 150° |
| 2026-04-23 16:38 | 52.34324 | -1.37488 | 21405 ft | 423 kts | 151° |
| 2026-04-23 16:38 | 52.31741 | -1.35306 | 20879 ft | 414 kts | 151° |
| 2026-04-23 16:38 | 52.30055 | -1.33883 | 20533 ft | 408 kts | 150° |
| 2026-04-23 16:39 | 52.27572 | -1.31717 | 20126 ft | 407 kts | 148° |
| 2026-04-23 16:39 | 52.25087 | -1.29342 | 19699 ft | 417 kts | 147° |
| 2026-04-23 16:39 | 52.22586 | -1.26934 | 19267 ft | 418 kts | 147° |
| 2026-04-23 16:39 | 52.20076 | -1.24541 | 18855 ft | 416 kts | 147° |
| 2026-04-23 16:40 | 52.17583 | -1.22182 | 18403 ft | 413 kts | 147° |
| 2026-04-23 16:40 | 52.15103 | -1.19844 | 17968 ft | 410 kts | 148° |
| 2026-04-23 16:40 | 52.12640 | -1.17528 | 17550 ft | 408 kts | 148° |
| 2026-04-23 16:40 | 52.10183 | -1.15222 | 17088 ft | 406 kts | 148° |
| 2026-04-23 16:41 | 52.07748 | -1.12942 | 16687 ft | 403 kts | 148° |
| 2026-04-23 16:41 | 52.05322 | -1.10674 | 16270 ft | 401 kts | 148° |
| 2026-04-23 16:41 | 52.02987 | -1.08239 | 15840 ft | 397 kts | 140° |
| 2026-04-23 16:41 | 52.01118 | -1.04998 | 15440 ft | 391 kts | 122° |
| 2026-04-23 16:42 | 51.99990 | -1.01053 | 15150 ft | 385 kts | 105° |
| 2026-04-23 16:42 | 51.99617 | -0.96769 | 14904 ft | 383 kts | 91° |
| 2026-04-23 16:42 | 51.99602 | -0.92456 | 14650 ft | 381 kts | 89° |
| 2026-04-23 16:42 | 51.99625 | -0.88155 | 14401 ft | 380 kts | 89° |
| 2026-04-23 16:43 | 51.99640 | -0.83881 | 14140 ft | 379 kts | 89° |
| 2026-04-23 16:43 | 51.99647 | -0.79617 | 13859 ft | 377 kts | 89° |
| 2026-04-23 16:43 | 51.99649 | -0.75425 | 13549 ft | 374 kts | 89° |
| 2026-04-23 16:43 | 51.99646 | -0.71284 | 13196 ft | 357 kts | 89° |
| 2026-04-23 16:44 | 51.99641 | -0.67373 | 13073 ft | 336 kts | 89° |
| 2026-04-23 16:44 | 51.99635 | -0.63695 | 12977 ft | 318 kts | 89° |
| 2026-04-23 16:44 | 51.99628 | -0.60114 | 12853 ft | 318 kts | 89° |
| 2026-04-23 16:44 | 51.99620 | -0.56516 | 12723 ft | 320 kts | 89° |
| 2026-04-23 16:45 | 51.99610 | -0.52909 | 12582 ft | 319 kts | 89° |
| 2026-04-23 16:45 | 51.99600 | -0.49320 | 12441 ft | 318 kts | 89° |
| 2026-04-23 16:45 | 51.99588 | -0.45728 | 12278 ft | 319 kts | 89° |
| 2026-04-23 16:45 | 51.99575 | -0.42141 | 11877 ft | 317 kts | 89° |
| 2026-04-23 16:46 | 51.99562 | -0.38592 | 11501 ft | 313 kts | 89° |
| 2026-04-23 16:46 | 51.99532 | -0.35135 | 11265 ft | 299 kts | 90° |
| 2026-04-23 16:46 | 51.99488 | -0.31825 | 10992 ft | 289 kts | 90° |
| 2026-04-23 16:46 | 51.99445 | -0.28602 | 10620 ft | 283 kts | 90° |
| 2026-04-23 16:47 | 51.99405 | -0.25429 | 10194 ft | 279 kts | 90° |
| 2026-04-23 16:47 | 51.99365 | -0.22296 | 9823 ft | 276 kts | 90° |
| 2026-04-23 16:47 | 51.99326 | -0.19201 | 9502 ft | 273 kts | 90° |
| 2026-04-23 16:47 | 51.99286 | -0.16128 | 9164 ft | 271 kts | 90° |
| 2026-04-23 16:48 | 51.99247 | -0.13071 | 8617 ft | 272 kts | 90° |
| 2026-04-23 16:48 | 51.99207 | -0.10008 | 8154 ft | 270 kts | 91° |
| 2026-04-23 16:48 | 51.99166 | -0.07042 | 7840 ft | 263 kts | 91° |
| 2026-04-23 16:48 | 51.99069 | -0.04148 | 7671 ft | 251 kts | 95° |
| 2026-04-23 16:49 | 51.98749 | -0.01420 | 7440 ft | 245 kts | 111° |
| 2026-04-23 16:49 | 51.97736 | 0.00764 | 7211 ft | 245 kts | 139° |
| 2026-04-23 16:49 | 51.96198 | 0.01863 | 7022 ft | 242 kts | 165° |
| 2026-04-23 16:49 | 51.94520 | 0.01900 | 6727 ft | 243 kts | 186° |
| 2026-04-23 16:50 | 51.92865 | 0.01342 | 6380 ft | 244 kts | 190° |
| 2026-04-23 16:50 | 51.91220 | 0.00696 | 6083 ft | 241 kts | 191° |
| 2026-04-23 16:50 | 51.89617 | 0.00046 | 5903 ft | 234 kts | 191° |
| 2026-04-23 16:50 | 51.88051 | -0.00596 | 5637 ft | 231 kts | 190° |
| 2026-04-23 16:51 | 51.86496 | -0.01243 | 5362 ft | 229 kts | 191° |
| 2026-04-23 16:51 | 51.84987 | -0.02081 | 5114 ft | 231 kts | 201° |
| 2026-04-23 16:51 | 51.83577 | -0.03294 | 4847 ft | 228 kts | 205° |
| 2026-04-23 16:51 | 51.82194 | -0.04575 | 4508 ft | 229 kts | 206° |
| 2026-04-23 16:52 | 51.80788 | -0.05752 | 4207 ft | 226 kts | 195° |
| 2026-04-23 16:52 | 51.79283 | -0.05868 | 3994 ft | 213 kts | 163° |
| 2026-04-23 16:52 | 51.77937 | -0.05065 | 3810 ft | 200 kts | 144° |
| 2026-04-23 16:52 | 51.76860 | -0.03778 | 3661 ft | 187 kts | 137° |
| 2026-04-23 16:53 | 51.75895 | -0.02465 | 3528 ft | 176 kts | 136° |
| 2026-04-23 16:53 | 51.75071 | -0.01074 | 3442 ft | 173 kts | 121° |
| 2026-04-23 16:53 | 51.74577 | 0.00685 | 3273 ft | 171 kts | 94° |
| 2026-04-23 16:53 | 51.74888 | 0.02510 | 3209 ft | 171 kts | 67° |
| 2026-04-23 16:54 | 51.75548 | 0.04076 | 3100 ft | 172 kts | 49° |
| 2026-04-23 16:54 | 51.76432 | 0.05396 | 2998 ft | 174 kts | 46° |
| 2026-04-23 16:54 | 51.77336 | 0.06749 | 2993 ft | 175 kts | 46° |
| 2026-04-23 16:54 | 51.78226 | 0.08081 | 2919 ft | 172 kts | 46° |
| 2026-04-23 16:55 | 51.79061 | 0.09349 | 2740 ft | 164 kts | 46° |
| 2026-04-23 16:55 | 51.79890 | 0.10593 | 2488 ft | 161 kts | 45° |
| 2026-04-23 16:55 | 51.80701 | 0.11802 | 2283 ft | 156 kts | 45° |
| 2026-04-23 16:55 | 51.81479 | 0.12963 | 2056 ft | 147 kts | 45° |
| 2026-04-23 16:56 | 51.82221 | 0.14075 | 1862 ft | 144 kts | 46° |
| 2026-04-23 16:56 | 51.82957 | 0.15181 | 1664 ft | 144 kts | 45° |
| 2026-04-23 16:56 | 51.83668 | 0.16240 | 1471 ft | 134 kts | 46° |
| 2026-04-23 16:56 | 51.84334 | 0.17243 | 1297 ft | 128 kts | 45° |
| 2026-04-23 16:57 | 51.84974 | 0.18193 | 1080 ft | 122 kts | 46° |
| 2026-04-23 16:57 | 51.85581 | 0.19099 | 926 ft | 116 kts | 44° |
| 2026-04-23 16:57 | 51.86163 | 0.19971 | 787 ft | 114 kts | 44° |
| 2026-04-23 16:57 | 51.86752 | 0.20851 | 650 ft | 115 kts | 43° |
| 2026-04-23 16:58 | 51.87340 | 0.21731 | 489 ft | 115 kts | 45° |
| 2026-04-23 16:58 | 51.87922 | 0.22610 | 363 ft | 114 kts | 43° |
| 2026-04-23 16:58 | 51.88443 | 0.23392 | 350 ft | 74 kts | 43° |
| 2026-04-23 16:58 | 51.88681 | 0.23753 | 351 ft | 34 kts | 43° |
| 2026-04-23 16:59 | 51.88837 | 0.23987 | 351 ft | 28 kts | 43° |
| 2026-04-23 16:59 | 51.88969 | 0.24187 | 354 ft | 24 kts | 45° |
| 2026-04-23 16:59 | 51.89066 | 0.24401 | 355 ft | 24 kts | 65° |
| 2026-04-23 16:59 | 51.89121 | 0.24614 | 356 ft | 16 kts | 68° |
| 2026-04-23 17:00 | 51.89154 | 0.24745 | 348 ft | 10 kts | 68° |
| 2026-04-23 17:00 | 51.89170 | 0.24851 | 351 ft | 8 kts | 98° |
| 2026-04-23 17:00 | 51.89158 | 0.24926 | 357 ft | 6 kts | 90° |
| 2026-04-23 17:00 | 51.89185 | 0.24991 | 359 ft | 8 kts | 43° |
| 2026-04-23 17:01 | 51.89222 | 0.25068 | 360 ft | 9 kts | 57° |
| 2026-04-23 17:01 | 51.89243 | 0.25121 | 360 ft | 0 kts | 58° |
| 2026-04-23 17:01 | 51.89245 | 0.25125 | 360 ft | 1 kts | 58° |
| 2026-04-23 17:01 | 51.89256 | 0.25154 | 358 ft | 5 kts | 58° |
| 2026-04-23 17:02 | 51.89272 | 0.25191 | 359 ft | 8 kts | 51° |
| 2026-04-23 17:02 | 51.89341 | 0.25298 | 360 ft | 13 kts | 43° |
| 2026-04-23 17:02 | 51.89377 | 0.25352 | 360 ft | 1 kts | 43° |
| 2026-04-23 17:02 | 51.89390 | 0.25371 | 358 ft | 5 kts | 43° |
| 2026-04-23 17:03 | 51.89422 | 0.25435 | 359 ft | 8 kts | 70° |
| 2026-04-23 17:03 | 51.89391 | 0.25519 | 360 ft | 11 kts | 141° |
| 2026-04-23 17:03 | 51.89322 | 0.25492 | 359 ft | 12 kts | 218° |
| 2026-04-23 17:03 | 51.89256 | 0.25392 | 355 ft | 13 kts | 223° |
| 2026-04-23 17:04 | 51.89189 | 0.25291 | 359 ft | 13 kts | 221° |
| 2026-04-23 17:04 | 51.89121 | 0.25190 | 360 ft | 13 kts | 223° |
| 2026-04-23 17:04 | 51.89059 | 0.25096 | 359 ft | 11 kts | 223° |
| 2026-04-23 17:04 | 51.89007 | 0.25021 | 359 ft | 7 kts | 217° |
| 2026-04-23 17:05 | 51.88974 | 0.25023 | 352 ft | 4 kts | 156° |
| 2026-04-23 17:05 | 51.88931 | 0.25089 | 354 ft | 14 kts | 134° |
| 2026-04-23 17:05 | 51.88867 | 0.25197 | 351 ft | 11 kts | 133° |
| 2026-04-23 17:05 | 51.88813 | 0.25283 | 353 ft | 10 kts | 140° |
| 2026-04-23 17:06 | 51.88773 | 0.25342 | 350 ft | 2 kts | 125° |
| 2026-04-23 17:06 | 51.88772 | 0.25352 | 353 ft | 1 kts | 103° |
| 2026-04-23 17:06 | 51.88774 | 0.25368 | 351 ft | 3 kts | 80° |
| 2026-04-23 17:06 | 51.88784 | 0.25390 | 349 ft | 0 kts | 42° |
| 2026-04-23 17:07 | 51.88795 | 0.25406 | 351 ft | 5 kts | 42° |
| 2026-04-23 17:07 | 51.88813 | 0.25432 | 350 ft | 3 kts | 43° |
| 2026-04-23 17:07 | 51.88814 | 0.25434 | 351 ft | 0 kts | 43° |
| 2026-04-23 17:30 | 51.88811 | 0.25430 | 344 ft | 3 kts | 42° |
| 2026-04-23 17:31 | 51.88790 | 0.25407 | 380 ft | 4 kts | 18° |
| 2026-04-23 17:31 | 51.88764 | 0.25401 | 354 ft | 4 kts | 349° |
| 2026-04-23 17:31 | 51.88743 | 0.25416 | 353 ft | 2 kts | 313° |
| 2026-04-23 17:31 | 51.88741 | 0.25412 | 353 ft | 0 kts | 313° |
| 2026-04-23 17:33 | 51.88754 | 0.25392 | 353 ft | 5 kts | 315° |
| 2026-04-23 17:33 | 51.88793 | 0.25327 | 353 ft | 11 kts | 313° |
| 2026-04-23 17:34 | 51.88845 | 0.25222 | 352 ft | 13 kts | 303° |
| 2026-04-23 17:34 | 51.88896 | 0.25099 | 350 ft | 14 kts | 305° |
| 2026-04-23 17:34 | 51.88979 | 0.24921 | 354 ft | 10 kts | 307° |
| 2026-04-23 17:35 | 51.89026 | 0.24825 | 357 ft | 10 kts | 295° |
| 2026-04-23 17:35 | 51.88938 | 0.24619 | 359 ft | 15 kts | 222° |
| 2026-04-23 17:35 | 51.88856 | 0.24498 | 358 ft | 17 kts | 223° |
| 2026-04-23 17:36 | 51.88763 | 0.24359 | 360 ft | 19 kts | 222° |
| 2026-04-23 17:36 | 51.88660 | 0.24207 | 359 ft | 21 kts | 222° |
| 2026-04-23 17:36 | 51.88548 | 0.24039 | 358 ft | 21 kts | 223° |
| 2026-04-23 17:36 | 51.88441 | 0.23877 | 355 ft | 22 kts | 223° |
| 2026-04-23 17:37 | 51.88324 | 0.23700 | 356 ft | 24 kts | 223° |
| 2026-04-23 17:37 | 51.88216 | 0.23539 | 352 ft | 21 kts | 223° |
| 2026-04-23 17:37 | 51.87998 | 0.23213 | 354 ft | 22 kts | 223° |
| 2026-04-23 17:38 | 51.87907 | 0.23076 | 354 ft | 17 kts | 223° |
| 2026-04-23 17:38 | 51.87831 | 0.22962 | 354 ft | 13 kts | 223° |
| 2026-04-23 17:38 | 51.87819 | 0.22885 | 351 ft | 4 kts | 304° |
| 2026-04-23 17:38 | 51.87837 | 0.22852 | 351 ft | 5 kts | 311° |
| 2026-04-23 17:39 | 51.87862 | 0.22808 | 351 ft | 4 kts | 313° |
| 2026-04-23 17:39 | 51.87863 | 0.22806 | 343 ft | 0 kts | 313° |
| 2026-04-23 17:40 | 51.87866 | 0.22802 | 357 ft | 3 kts | 313° |
| 2026-04-23 17:41 | 51.87905 | 0.22733 | 354 ft | 11 kts | 313° |
| 2026-04-23 17:41 | 51.88007 | 0.22737 | 336 ft | 11 kts | 43° |
| 2026-04-23 17:41 | 51.88215 | 0.23050 | 336 ft | 81 kts | 43° |
| 2026-04-23 17:42 | 51.89621 | 0.25159 | 1151 ft | 154 kts | 44° |
| 2026-04-23 17:42 | 51.90395 | 0.26297 | 2037 ft | 146 kts | 45° |
| 2026-04-23 17:42 | 51.91018 | 0.27610 | 2387 ft | 155 kts | 68° |
| 2026-04-23 17:43 | 51.91140 | 0.29413 | 2620 ft | 175 kts | 98° |
| 2026-04-23 17:43 | 51.90610 | 0.31270 | 2993 ft | 190 kts | 127° |
| 2026-04-23 17:43 | 51.89522 | 0.32540 | 3550 ft | 200 kts | 155° |
| 2026-04-23 17:43 | 51.88115 | 0.32783 | 3998 ft | 211 kts | 187° |
| 2026-04-23 17:44 | 51.86712 | 0.31960 | 4389 ft | 221 kts | 202° |
| 2026-04-23 17:44 | 51.85280 | 0.30829 | 4709 ft | 238 kts | 203° |
| 2026-04-23 17:44 | 51.82055 | 0.28306 | 4973 ft | 271 kts | 202° |
| 2026-04-23 17:45 | 51.80343 | 0.26996 | 4971 ft | 273 kts | 202° |
| 2026-04-23 17:45 | 51.76816 | 0.24828 | 4965 ft | 269 kts | 181° |
| 2026-04-23 17:45 | 51.75006 | 0.25235 | 4975 ft | 261 kts | 156° |
| 2026-04-23 17:46 | 51.71739 | 0.27778 | 5008 ft | 262 kts | 150° |
| 2026-04-23 17:46 | 51.70115 | 0.29099 | 4993 ft | 261 kts | 150° |
| 2026-04-23 17:46 | 51.68487 | 0.30411 | 4989 ft | 262 kts | 150° |
| 2026-04-23 17:47 | 51.66857 | 0.31720 | 5008 ft | 262 kts | 151° |
| 2026-04-23 17:47 | 51.65216 | 0.33010 | 5083 ft | 263 kts | 152° |
| 2026-04-23 17:47 | 51.61921 | 0.35577 | 5997 ft | 265 kts | 151° |
| 2026-04-23 17:48 | 51.60255 | 0.36875 | 6580 ft | 267 kts | 151° |
| 2026-04-23 17:48 | 51.58576 | 0.38184 | 7234 ft | 269 kts | 151° |
| 2026-04-23 17:48 | 51.56883 | 0.39505 | 7853 ft | 272 kts | 151° |
| 2026-04-23 17:48 | 51.55173 | 0.40835 | 8278 ft | 273 kts | 151° |
| 2026-04-23 17:49 | 51.53459 | 0.42165 | 8415 ft | 273 kts | 150° |
| 2026-04-23 17:49 | 51.51749 | 0.43496 | 8432 ft | 274 kts | 150° |
| 2026-04-23 17:49 | 51.50033 | 0.44832 | 8417 ft | 274 kts | 150° |
| 2026-04-23 17:49 | 51.48312 | 0.46166 | 8416 ft | 275 kts | 150° |
| 2026-04-23 17:50 | 51.46584 | 0.47478 | 8431 ft | 275 kts | 151° |
| 2026-04-23 17:50 | 51.43121 | 0.50099 | 8414 ft | 275 kts | 151° |
| 2026-04-23 17:50 | 51.41393 | 0.51411 | 8432 ft | 276 kts | 151° |
| 2026-04-23 17:51 | 51.39656 | 0.52726 | 8414 ft | 276 kts | 151° |
| 2026-04-23 17:51 | 51.37917 | 0.54040 | 8431 ft | 276 kts | 151° |
| 2026-04-23 17:51 | 51.34442 | 0.56667 | 8428 ft | 276 kts | 150° |
| 2026-04-23 17:52 | 51.32697 | 0.57950 | 8439 ft | 277 kts | 154° |